sensor_id;sensor_type;location;lat;lon;timestamp;pressure;altitude;pressure_sealevel;temperature;humidity
54978;BME280;40873;47.522;19.106;2022-11-20T00:01:21;100070.25;;;1.26;100.00
54978;BME280;40873;47.522;19.106;2022-11-20T00:03:49;100074.59;;;1.25;100.00
54978;BME280;40873;47.522;19.106;2022-11-20T00:06:18;100060.00;;;1.20;100.00
54978;BME280;40873;47.522;19.106;2022-11-20T00:08:46;100059.00;;;1.25;100.00
54978;BME280;40873;47.522;19.106;2022-11-20T00:11:21;100057.41;;;1.20;100.00
54978;BME280;40873;47.522;19.106;2022-11-20T00:13:54;100061.16;;;1.08;100.00
54978;BME280;40873;47.522;19.106;2022-11-20T00:16:23;100057.03;;;1.01;100.00
54978;BME280;40873;47.522;19.106;2022-11-20T00:18:51;100059.56;;;1.02;100.00
54978;BME280;40873;47.522;19.106;2022-11-20T00:21:23;100069.28;;;0.96;100.00
54978;BME280;40873;47.522;19.106;2022-11-20T00:23:53;100057.97;;;0.97;100.00
54978;BME280;40873;47.522;19.106;2022-11-20T00:26:22;100080.56;;;0.95;100.00
54978;BME280;40873;47.522;19.106;2022-11-20T00:28:51;100089.94;;;1.00;100.00
54978;BME280;40873;47.522;19.106;2022-11-20T00:31:19;100092.41;;;1.06;100.00
54978;BME280;40873;47.522;19.106;2022-11-20T00:33:46;100076.66;;;1.11;100.00
54978;BME280;40873;47.522;19.106;2022-11-20T00:36:18;100077.34;;;1.18;100.00
54978;BME280;40873;47.522;19.106;2022-11-20T00:38:46;100092.78;;;1.24;100.00
54978;BME280;40873;47.522;19.106;2022-11-20T00:41:15;100096.72;;;1.38;100.00
54978;BME280;40873;47.522;19.106;2022-11-20T00:43:42;100104.56;;;1.37;100.00
54978;BME280;40873;47.522;19.106;2022-11-20T00:46:13;100095.13;;;1.34;100.00
54978;BME280;40873;47.522;19.106;2022-11-20T00:48:40;100084.84;;;1.30;100.00
54978;BME280;40873;47.522;19.106;2022-11-20T00:51:07;100073.63;;;1.28;100.00
54978;BME280;40873;47.522;19.106;2022-11-20T00:53:34;100072.84;;;1.26;100.00
54978;BME280;40873;47.522;19.106;2022-11-20T00:56:07;100072.84;;;1.24;100.00
54978;BME280;40873;47.522;19.106;2022-11-20T00:58:36;100067.59;;;1.27;100.00
54978;BME280;40873;47.522;19.106;2022-11-20T01:01:08;100073.63;;;1.28;100.00
54978;BME280;40873;47.522;19.106;2022-11-20T01:03:37;100074.59;;;1.24;100.00
54978;BME280;40873;47.522;19.106;2022-11-20T01:06:07;100068.50;;;1.26;100.00
54978;BME280;40873;47.522;19.106;2022-11-20T01:08:36;100073.00;;;1.20;100.00
54978;BME280;40873;47.522;19.106;2022-11-20T01:11:06;100074.75;;;1.19;100.00
54978;BME280;40873;47.522;19.106;2022-11-20T01:13:35;100072.84;;;1.24;100.00
54978;BME280;40873;47.522;19.106;2022-11-20T01:16:10;100087.53;;;1.27;100.00
54978;BME280;40873;47.522;19.106;2022-11-20T01:18:39;100074.59;;;1.24;100.00
54978;BME280;40873;47.522;19.106;2022-11-20T01:21:19;100078.16;;;1.21;100.00
54978;BME280;40873;47.522;19.106;2022-11-20T01:23:47;100077.13;;;1.27;100.00
54978;BME280;40873;47.522;19.106;2022-11-20T01:26:17;100081.72;;;1.17;100.00
54978;BME280;40873;47.522;19.106;2022-11-20T01:28:45;100074.66;;;1.22;100.00
54978;BME280;40873;47.522;19.106;2022-11-20T01:31:16;100079.03;;;1.20;100.00
54978;BME280;40873;47.522;19.106;2022-11-20T01:33:45;100078.19;;;1.20;100.00
54978;BME280;40873;47.522;19.106;2022-11-20T01:36:13;100079.94;;;1.19;100.00
54978;BME280;40873;47.522;19.106;2022-11-20T01:38:41;100054.75;;;1.21;100.00
54978;BME280;40873;47.522;19.106;2022-11-20T01:41:10;100046.97;;;1.21;100.00
54978;BME280;40873;47.522;19.106;2022-11-20T01:43:37;100046.06;;;1.22;100.00
54978;BME280;40873;47.522;19.106;2022-11-20T01:48:53;100049.50;;;1.23;100.00
54978;BME280;40873;47.522;19.106;2022-11-20T01:51:34;100056.78;;;1.10;100.00
54978;BME280;40873;47.522;19.106;2022-11-20T01:54:05;100050.63;;;1.14;100.00
54978;BME280;40873;47.522;19.106;2022-11-20T01:56:41;100039.22;;;1.18;100.00
54978;BME280;40873;47.522;19.106;2022-11-20T01:59:10;100043.41;;;1.25;100.00
54978;BME280;40873;47.522;19.106;2022-11-20T02:01:40;100036.47;;;1.26;100.00
54978;BME280;40873;47.522;19.106;2022-11-20T02:04:08;100039.22;;;1.20;100.00
54978;BME280;40873;47.522;19.106;2022-11-20T02:06:42;100035.75;;;1.19;100.00
54978;BME280;40873;47.522;19.106;2022-11-20T02:09:10;100039.06;;;1.24;100.00
54978;BME280;40873;47.522;19.106;2022-11-20T02:11:38;100049.25;;;1.32;100.00
54978;BME280;40873;47.522;19.106;2022-11-20T02:14:05;100056.31;;;1.28;100.00
54978;BME280;40873;47.522;19.106;2022-11-20T02:16:38;100053.81;;;1.24;100.00
54978;BME280;40873;47.522;19.106;2022-11-20T02:19:19;100055.44;;;1.28;100.00
54978;BME280;40873;47.522;19.106;2022-11-20T02:25:12;100045.78;;;1.33;100.00
54978;BME280;40873;47.522;19.106;2022-11-20T02:27:39;100045.75;;;1.34;100.00
54978;BME280;40873;47.522;19.106;2022-11-20T02:30:07;100046.63;;;1.33;100.00
54978;BME280;40873;47.522;19.106;2022-11-20T02:32:35;100051.00;;;1.31;100.00
54978;BME280;40873;47.522;19.106;2022-11-20T02:37:46;100034.34;;;1.38;100.00
54978;BME280;40873;47.522;19.106;2022-11-20T02:40:14;100031.75;;;1.38;100.00
54978;BME280;40873;47.522;19.106;2022-11-20T02:42:42;100027.22;;;1.45;100.00
54978;BME280;40873;47.522;19.106;2022-11-20T02:45:09;100025.41;;;1.49;100.00
54978;BME280;40873;47.522;19.106;2022-11-20T02:47:36;100018.59;;;1.45;100.00
54978;BME280;40873;47.522;19.106;2022-11-20T02:50:04;100015.97;;;1.46;100.00
54978;BME280;40873;47.522;19.106;2022-11-20T02:52:31;100027.22;;;1.47;100.00
54978;BME280;40873;47.522;19.106;2022-11-20T02:54:58;100027.16;;;1.48;100.00
54978;BME280;40873;47.522;19.106;2022-11-20T02:57:25;100026.13;;;1.54;100.00
54978;BME280;40873;47.522;19.106;2022-11-20T02:59:52;100021.84;;;1.51;100.00
54978;BME280;40873;47.522;19.106;2022-11-20T03:02:19;100014.97;;;1.50;100.00
54978;BME280;40873;47.522;19.106;2022-11-20T03:04:47;100008.19;;;1.45;100.00
54978;BME280;40873;47.522;19.106;2022-11-20T03:07:14;100007.59;;;1.64;100.00
54978;BME280;40873;47.522;19.106;2022-11-20T03:09:41;100011.28;;;1.57;100.00
54978;BME280;40873;47.522;19.106;2022-11-20T03:12:08;100014.97;;;1.50;100.00
54978;BME280;40873;47.522;19.106;2022-11-20T03:14:35;100015.91;;;1.48;100.00
54978;BME280;40873;47.522;19.106;2022-11-20T03:17:02;100006.47;;;1.44;100.00
54978;BME280;40873;47.522;19.106;2022-11-20T03:19:29;100007.44;;;1.41;100.00
54978;BME280;40873;47.522;19.106;2022-11-20T03:21:56;100017.94;;;1.36;100.00
54978;BME280;40873;47.522;19.106;2022-11-20T03:24:23;100028.28;;;1.38;100.00
54978;BME280;40873;47.522;19.106;2022-11-20T03:26:50;100024.00;;;1.37;100.00
54978;BME280;40873;47.522;19.106;2022-11-20T03:29:16;100033.31;;;1.44;100.00
54978;BME280;40873;47.522;19.106;2022-11-20T03:31:44;100038.47;;;1.46;100.00
54978;BME280;40873;47.522;19.106;2022-11-20T03:34:11;100043.59;;;1.49;100.00
54978;BME280;40873;47.522;19.106;2022-11-20T03:36:40;100027.22;;;1.47;100.00
54978;BME280;40873;47.522;19.106;2022-11-20T03:39:07;100030.22;;;1.31;100.00
54978;BME280;40873;47.522;19.106;2022-11-20T03:41:39;100019.53;;;1.42;100.00
54978;BME280;40873;47.522;19.106;2022-11-20T03:44:08;100013.69;;;1.34;100.00
54978;BME280;40873;47.522;19.106;2022-11-20T03:46:36;100009.31;;;1.36;100.00
54978;BME280;40873;47.522;19.106;2022-11-20T03:49:03;100011.00;;;1.37;100.00
54978;BME280;40873;47.522;19.106;2022-11-20T03:51:33;100012.00;;;1.33;100.00
54978;BME280;40873;47.522;19.106;2022-11-20T03:54:06;100010.94;;;1.38;100.00
54978;BME280;40873;47.522;19.106;2022-11-20T03:56:37;100013.69;;;1.34;100.00
54978;BME280;40873;47.522;19.106;2022-11-20T03:59:04;100003.25;;;1.35;100.00
54978;BME280;40873;47.522;19.106;2022-11-20T04:01:35;100000.44;;;1.43;100.00
54978;BME280;40873;47.522;19.106;2022-11-20T04:04:03;100006.47;;;1.44;100.00
54978;BME280;40873;47.522;19.106;2022-11-20T04:06:34;100012.47;;;1.46;100.00
54978;BME280;40873;47.522;19.106;2022-11-20T04:09:02;100012.47;;;1.46;100.00
54978;BME280;40873;47.522;19.106;2022-11-20T04:11:35;100009.97;;;1.43;100.00
54978;BME280;40873;47.522;19.106;2022-11-20T04:14:05;100004.84;;;1.41;100.00
54978;BME280;40873;47.522;19.106;2022-11-20T04:16:35;100003.75;;;1.48;100.00
54978;BME280;40873;47.522;19.106;2022-11-20T04:19:09;99992.63;;;1.43;100.00
54978;BME280;40873;47.522;19.106;2022-11-20T04:21:37;99996.94;;;1.44;100.00
54978;BME280;40873;47.522;19.106;2022-11-20T04:24:04;99983.41;;;1.33;100.00
54978;BME280;40873;47.522;19.106;2022-11-20T04:26:31;99983.22;;;1.39;100.00
54978;BME280;40873;47.522;19.106;2022-11-20T04:28:58;99984.88;;;1.42;100.00
54978;BME280;40873;47.522;19.106;2022-11-20T04:31:30;99983.88;;;1.47;100.00
54978;BME280;40873;47.522;19.106;2022-11-20T04:34:04;99979.06;;;1.33;100.00
54978;BME280;40873;47.522;19.106;2022-11-20T04:36:33;99974.72;;;1.34;100.00
54978;BME280;40873;47.522;19.106;2022-11-20T04:39:03;99978.91;;;1.38;100.00
54978;BME280;40873;47.522;19.106;2022-11-20T04:41:32;99978.88;;;1.40;100.00
54978;BME280;40873;47.522;19.106;2022-11-20T04:44:01;99994.38;;;1.43;100.00
54978;BME280;40873;47.522;19.106;2022-11-20T04:46:34;99989.00;;;1.49;100.00
54978;BME280;40873;47.522;19.106;2022-11-20T04:49:02;99990.44;;;1.59;100.00
54978;BME280;40873;47.522;19.106;2022-11-20T04:51:29;99977.50;;;1.57;100.00
54978;BME280;40873;47.522;19.106;2022-11-20T04:53:56;99961.88;;;1.57;100.00
54978;BME280;40873;47.522;19.106;2022-11-20T04:56:23;99949.66;;;1.61;100.00
54978;BME280;40873;47.522;19.106;2022-11-20T04:58:53;99948.88;;;1.57;100.00
54978;BME280;40873;47.522;19.106;2022-11-20T05:01:21;99948.03;;;1.57;100.00
54978;BME280;40873;47.522;19.106;2022-11-20T05:03:49;99952.34;;;1.58;100.00
54978;BME280;40873;47.522;19.106;2022-11-20T05:06:18;99954.69;;;1.65;100.00
54978;BME280;40873;47.522;19.106;2022-11-20T05:08:45;99954.81;;;1.62;100.00
54978;BME280;40873;47.522;19.106;2022-11-20T05:11:15;99950.47;;;1.63;100.00
54978;BME280;40873;47.522;19.106;2022-11-20T05:13:42;99968.66;;;1.63;100.00
54978;BME280;40873;47.522;19.106;2022-11-20T05:16:15;99968.56;;;1.66;100.00
54978;BME280;40873;47.522;19.106;2022-11-20T05:18:43;99960.09;;;1.59;100.00
54978;BME280;40873;47.522;19.106;2022-11-20T05:21:11;99957.53;;;1.58;100.00
54978;BME280;40873;47.522;19.106;2022-11-20T05:23:39;99959.41;;;1.54;100.00
54978;BME280;40873;47.522;19.106;2022-11-20T05:26:11;99953.34;;;1.54;100.00
54978;BME280;40873;47.522;19.106;2022-11-20T05:28:38;99932.56;;;1.52;100.00
54978;BME280;40873;47.522;19.106;2022-11-20T05:31:07;99927.09;;;1.61;100.00
54978;BME280;40873;47.522;19.106;2022-11-20T05:33:35;99922.69;;;1.63;100.00
54978;BME280;40873;47.522;19.106;2022-11-20T05:36:03;99935.41;;;1.73;100.00
54978;BME280;40873;47.522;19.106;2022-11-20T05:38:31;99926.75;;;1.72;100.00
54978;BME280;40873;47.522;19.106;2022-11-20T05:41:18;99921.81;;;1.64;100.00
54978;BME280;40873;47.522;19.106;2022-11-20T05:43:46;99928.81;;;1.62;100.00
54978;BME280;40873;47.522;19.106;2022-11-20T05:46:15;99930.38;;;1.68;100.00
54978;BME280;40873;47.522;19.106;2022-11-20T05:48:43;99933.88;;;1.67;100.00
54978;BME280;40873;47.522;19.106;2022-11-20T05:51:13;99946.47;;;1.79;100.00
54978;BME280;40873;47.522;19.106;2022-11-20T05:53:40;99949.97;;;1.78;100.00
54978;BME280;40873;47.522;19.106;2022-11-20T05:56:17;99947.63;;;1.71;100.00
54978;BME280;40873;47.522;19.106;2022-11-20T05:58:45;99951.25;;;1.65;100.00
54978;BME280;40873;47.522;19.106;2022-11-20T06:03:44;99955.59;;;1.64;100.00
54978;BME280;40873;47.522;19.106;2022-11-20T06:06:15;99957.31;;;1.65;100.00
54978;BME280;40873;47.522;19.106;2022-11-20T06:08:43;99963.34;;;1.68;100.00
54978;BME280;40873;47.522;19.106;2022-11-20T06:11:11;99957.97;;;1.72;100.00
54978;BME280;40873;47.522;19.106;2022-11-20T06:13:39;99959.88;;;1.67;100.00
54978;BME280;40873;47.522;19.106;2022-11-20T06:16:09;99975.31;;;1.72;100.00
54978;BME280;40873;47.522;19.106;2022-11-20T06:18:37;99962.28;;;1.73;100.00
54978;BME280;40873;47.522;19.106;2022-11-20T06:21:10;99951.06;;;1.71;100.00
54978;BME280;40873;47.522;19.106;2022-11-20T06:23:37;99942.47;;;1.69;100.00
54978;BME280;40873;47.522;19.106;2022-11-20T06:26:19;99945.97;;;1.68;100.00
54978;BME280;40873;47.522;19.106;2022-11-20T06:28:47;99956.38;;;1.68;100.00
54978;BME280;40873;47.522;19.106;2022-11-20T06:31:16;99957.84;;;1.77;100.00
54978;BME280;40873;47.522;19.106;2022-11-20T06:33:44;99962.13;;;1.78;100.00
54978;BME280;40873;47.522;19.106;2022-11-20T06:36:13;99972.41;;;1.82;100.00
54978;BME280;40873;47.522;19.106;2022-11-20T06:38:41;99992.22;;;1.86;100.00
54978;BME280;40873;47.522;19.106;2022-11-20T06:41:16;99990.28;;;1.93;100.00
54978;BME280;40873;47.522;19.106;2022-11-20T06:43:43;99999.09;;;1.89;100.00
54978;BME280;40873;47.522;19.106;2022-11-20T06:46:12;100000.97;;;1.84;100.00
54978;BME280;40873;47.522;19.106;2022-11-20T06:48:40;100010.25;;;1.92;100.00
54978;BME280;40873;47.522;19.106;2022-11-20T06:51:07;100007.50;;;1.97;100.00
54978;BME280;40873;47.522;19.106;2022-11-20T06:53:35;100006.59;;;1.98;100.00
54978;BME280;40873;47.522;19.106;2022-11-20T06:56:03;99999.47;;;2.05;100.00
54978;BME280;40873;47.522;19.106;2022-11-20T06:58:31;100002.78;;;2.10;100.00
54978;BME280;40873;47.522;19.106;2022-11-20T07:01:07;99994.63;;;2.20;100.00
54978;BME280;40873;47.522;19.106;2022-11-20T07:03:34;99980.50;;;2.28;100.00
54978;BME280;40873;47.522;19.106;2022-11-20T07:06:02;99977.13;;;2.26;100.00
54978;BME280;40873;47.522;19.106;2022-11-20T07:08:32;99979.78;;;2.24;100.00
54978;BME280;40873;47.522;19.106;2022-11-20T07:11:02;99981.47;;;2.25;100.00
54978;BME280;40873;47.522;19.106;2022-11-20T07:13:29;99976.97;;;2.30;100.00
54978;BME280;40873;47.522;19.106;2022-11-20T07:16:00;99979.66;;;2.27;100.00
54978;BME280;40873;47.522;19.106;2022-11-20T07:18:27;99984.78;;;2.30;100.00
54978;BME280;40873;47.522;19.106;2022-11-20T07:20:55;99992.44;;;2.35;100.00
54978;BME280;40873;47.522;19.106;2022-11-20T07:23:21;100006.03;;;2.43;100.00
54978;BME280;40873;47.522;19.106;2022-11-20T07:25:48;100005.25;;;2.41;100.00
54978;BME280;40873;47.522;19.106;2022-11-20T07:28:15;100005.13;;;2.45;100.00
54978;BME280;40873;47.522;19.106;2022-11-20T07:30:42;100007.72;;;2.45;100.00
54978;BME280;40873;47.522;19.106;2022-11-20T07:33:10;100015.41;;;2.48;100.00
54978;BME280;40873;47.522;19.106;2022-11-20T07:35:37;100022.53;;;2.43;100.00
54978;BME280;40873;47.522;19.106;2022-11-20T07:38:04;100012.13;;;2.43;100.00
54978;BME280;40873;47.522;19.106;2022-11-20T07:40:31;100019.06;;;2.43;100.00
54978;BME280;40873;47.522;19.106;2022-11-20T07:42:58;100018.00;;;2.48;100.00
54978;BME280;40873;47.522;19.106;2022-11-20T07:45:25;100023.28;;;2.47;100.00
54978;BME280;40873;47.522;19.106;2022-11-20T07:47:52;100014.44;;;2.53;100.00
54978;BME280;40873;47.522;19.106;2022-11-20T07:50:20;100015.22;;;2.55;100.00
54978;BME280;40873;47.522;19.106;2022-11-20T07:52:47;100020.16;;;2.62;100.00
54978;BME280;40873;47.522;19.106;2022-11-20T07:55:14;100025.50;;;2.59;100.00
54978;BME280;40873;47.522;19.106;2022-11-20T07:57:41;100021.72;;;2.68;100.00
54978;BME280;40873;47.522;19.106;2022-11-20T08:00:10;100028.69;;;2.67;100.00
54978;BME280;40873;47.522;19.106;2022-11-20T08:02:38;100024.31;;;2.68;100.00
54978;BME280;40873;47.522;19.106;2022-11-20T08:05:07;100010.47;;;2.67;100.00
54978;BME280;40873;47.522;19.106;2022-11-20T08:07:42;100006.22;;;2.65;100.00
54978;BME280;40873;47.522;19.106;2022-11-20T08:10:11;99996.66;;;2.65;100.00
54978;BME280;40873;47.522;19.106;2022-11-20T08:12:49;99994.56;;;2.75;100.00
54978;BME280;40873;47.522;19.106;2022-11-20T08:15:36;99996.81;;;2.86;100.00
54978;BME280;40873;47.522;19.106;2022-11-20T08:18:07;100006.47;;;2.82;100.00
54978;BME280;40873;47.522;19.106;2022-11-20T08:20:54;100009.66;;;2.90;100.00
54978;BME280;40873;47.522;19.106;2022-11-20T08:23:22;100013.09;;;2.92;100.00
54978;BME280;40873;47.522;19.106;2022-11-20T08:25:50;100000.84;;;2.94;100.00
54978;BME280;40873;47.522;19.106;2022-11-20T08:28:17;99999.81;;;3.00;100.00
54978;BME280;40873;47.522;19.106;2022-11-20T08:30:49;99990.69;;;2.87;100.00
54978;BME280;40873;47.522;19.106;2022-11-20T08:33:17;99988.94;;;2.87;100.00
54978;BME280;40873;47.522;19.106;2022-11-20T08:35:45;99993.75;;;2.98;100.00
54978;BME280;40873;47.522;19.106;2022-11-20T08:38:12;99994.19;;;3.11;100.00
54978;BME280;40873;47.522;19.106;2022-11-20T08:40:39;99995.78;;;3.15;100.00
54978;BME280;40873;47.522;19.106;2022-11-20T08:43:05;100002.00;;;3.11;100.00
54978;BME280;40873;47.522;19.106;2022-11-20T08:45:32;100008.97;;;3.10;100.00
54978;BME280;40873;47.522;19.106;2022-11-20T08:48:02;100013.19;;;3.14;100.00
54978;BME280;40873;47.522;19.106;2022-11-20T08:50:30;100015.53;;;3.22;100.00
54978;BME280;40873;47.522;19.106;2022-11-20T08:53:05;100010.88;;;3.30;100.00
54978;BME280;40873;47.522;19.106;2022-11-20T08:55:33;100006.38;;;3.35;100.00
54978;BME280;40873;47.522;19.106;2022-11-20T08:58:05;100010.75;;;3.33;100.00
54978;BME280;40873;47.522;19.106;2022-11-20T09:00:33;100004.47;;;3.39;100.00
54978;BME280;40873;47.522;19.106;2022-11-20T09:03:01;100016.44;;;3.44;100.00
54978;BME280;40873;47.522;19.106;2022-11-20T09:05:28;100025.34;;;3.39;100.00
54978;BME280;40873;47.522;19.106;2022-11-20T09:07:59;100019.97;;;3.43;100.00
54978;BME280;40873;47.522;19.106;2022-11-20T09:10:26;100022.38;;;3.49;100.00
54978;BME280;40873;47.522;19.106;2022-11-20T09:12:54;100021.38;;;3.52;100.00
54978;BME280;40873;47.522;19.106;2022-11-20T09:15:23;100031.94;;;3.49;100.00
54978;BME280;40873;47.522;19.106;2022-11-20T09:17:53;100026.72;;;3.49;100.00
54978;BME280;40873;47.522;19.106;2022-11-20T09:20:21;100033.84;;;3.44;100.00
54978;BME280;40873;47.522;19.106;2022-11-20T09:22:48;100045.00;;;3.49;100.00
54978;BME280;40873;47.522;19.106;2022-11-20T09:25:15;100040.41;;;3.55;100.00
54978;BME280;40873;47.522;19.106;2022-11-20T09:27:42;100044.72;;;3.56;100.00
54978;BME280;40873;47.522;19.106;2022-11-20T09:30:12;100042.81;;;3.60;100.00
54978;BME280;40873;47.522;19.106;2022-11-20T09:32:39;100032.38;;;3.60;100.00
54978;BME280;40873;47.522;19.106;2022-11-20T09:35:07;100034.84;;;3.65;100.00
54978;BME280;40873;47.522;19.106;2022-11-20T09:37:34;100020.72;;;3.70;100.00
54978;BME280;40873;47.522;19.106;2022-11-20T09:40:02;100018.97;;;3.71;100.00
54978;BME280;40873;47.522;19.106;2022-11-20T09:45:21;100017.69;;;3.81;100.00
54978;BME280;40873;47.522;19.106;2022-11-20T09:48:13;100018.53;;;3.81;100.00
54978;BME280;40873;47.522;19.106;2022-11-20T09:53:33;100013.84;;;3.91;100.00
54978;BME280;40873;47.522;19.106;2022-11-20T09:56:03;100012.69;;;3.98;100.00
54978;BME280;40873;47.522;19.106;2022-11-20T09:58:35;100005.53;;;4.03;100.00
54978;BME280;40873;47.522;19.106;2022-11-20T10:01:16;100003.72;;;4.05;100.00
54978;BME280;40873;47.522;19.106;2022-11-20T10:06:15;100004.03;;;4.20;100.00
54978;BME280;40873;47.522;19.106;2022-11-20T10:08:56;100004.09;;;4.18;100.00
54978;BME280;40873;47.522;19.106;2022-11-20T10:11:58;99992.88;;;4.36;100.00
54978;BME280;40873;47.522;19.106;2022-11-20T10:20:16;99965.50;;;4.67;100.00
54978;BME280;40873;47.522;19.106;2022-11-20T10:23:15;99966.78;;;4.57;100.00
54978;BME280;40873;47.522;19.106;2022-11-20T10:28:48;99950.69;;;4.88;100.00
54978;BME280;40873;47.522;19.106;2022-11-20T10:31:56;99947.69;;;5.16;100.00
54978;BME280;40873;47.522;19.106;2022-11-20T10:35:05;99958.97;;;5.37;100.00
54978;BME280;40873;47.522;19.106;2022-11-20T10:37:35;99945.69;;;5.60;100.00
54978;BME280;40873;47.522;19.106;2022-11-20T10:43:01;99948.28;;;5.98;100.00
54978;BME280;40873;47.522;19.106;2022-11-20T10:46:01;99942.91;;;6.01;97.29
54978;BME280;40873;47.522;19.106;2022-11-20T10:48:31;99951.22;;;6.28;97.60
54978;BME280;40873;47.522;19.106;2022-11-20T10:51:10;99938.91;;;6.47;94.84
54978;BME280;40873;47.522;19.106;2022-11-20T10:54:02;99943.28;;;6.47;92.90
54978;BME280;40873;47.522;19.106;2022-11-20T10:56:41;99952.06;;;6.63;92.12
54978;BME280;40873;47.522;19.106;2022-11-20T10:59:41;99946.66;;;6.66;92.38
54978;BME280;40873;47.522;19.106;2022-11-20T11:02:23;99960.94;;;6.78;91.23
54978;BME280;40873;47.522;19.106;2022-11-20T11:04:54;99958.16;;;6.64;90.87
54978;BME280;40873;47.522;19.106;2022-11-20T11:07:28;99963.25;;;6.84;91.69
54978;BME280;40873;47.522;19.106;2022-11-20T11:09:57;99974.88;;;6.78;89.64
54978;BME280;40873;47.522;19.106;2022-11-20T11:12:25;99977.34;;;6.64;89.05
54978;BME280;40873;47.522;19.106;2022-11-20T11:14:55;99981.16;;;6.76;87.94
54978;BME280;40873;47.522;19.106;2022-11-20T11:20:00;99968.78;;;6.43;92.42
54978;BME280;40873;47.522;19.106;2022-11-20T11:22:30;99963.94;;;6.53;92.29
54978;BME280;40873;47.522;19.106;2022-11-20T11:24:58;99968.78;;;6.43;92.21
54978;BME280;40873;47.522;19.106;2022-11-20T11:27:26;99965.44;;;6.40;92.42
54978;BME280;40873;47.522;19.106;2022-11-20T11:30:14;99966.22;;;6.24;91.76
54978;BME280;40873;47.522;19.106;2022-11-20T11:32:41;99974.38;;;6.18;91.79
54978;BME280;40873;47.522;19.106;2022-11-20T11:35:24;99971.75;;;6.18;92.12
54978;BME280;40873;47.522;19.106;2022-11-20T11:37:53;99967.97;;;6.24;92.26
54978;BME280;40873;47.522;19.106;2022-11-20T11:40:21;99959.53;;;6.36;91.76
54978;BME280;40873;47.522;19.106;2022-11-20T11:42:55;99962.38;;;6.31;92.36
54978;BME280;40873;47.522;19.106;2022-11-20T11:45:23;99950.03;;;6.16;92.28
54978;BME280;40873;47.522;19.106;2022-11-20T11:47:55;99958.09;;;6.12;92.91
54978;BME280;40873;47.522;19.106;2022-11-20T11:50:28;99954.50;;;6.14;92.78
54978;BME280;40873;47.522;19.106;2022-11-20T11:53:17;99950.78;;;6.18;92.57
54978;BME280;40873;47.522;19.106;2022-11-20T11:55:56;99946.94;;;6.25;92.19
54978;BME280;40873;47.522;19.106;2022-11-20T12:01:30;99936.44;;;5.89;92.59
54978;BME280;40873;47.522;19.106;2022-11-20T12:06:58;99949.22;;;5.78;93.16
54978;BME280;40873;47.522;19.106;2022-11-20T12:09:49;99945.75;;;5.77;94.94
54978;BME280;40873;47.522;19.106;2022-11-20T12:12:37;99946.34;;;5.83;94.11
54978;BME280;40873;47.522;19.106;2022-11-20T12:15:11;99948.06;;;5.84;94.34
54978;BME280;40873;47.522;19.106;2022-11-20T12:17:39;99952.69;;;5.78;95.46
54978;BME280;40873;47.522;19.106;2022-11-20T12:20:15;99947.50;;;5.77;94.88
54978;BME280;40873;47.522;19.106;2022-11-20T12:23:14;99945.38;;;5.85;95.00
54978;BME280;40873;47.522;19.106;2022-11-20T12:25:47;99936.41;;;5.91;94.34
54978;BME280;40873;47.522;19.106;2022-11-20T12:28:32;99930.72;;;5.81;96.20
54978;BME280;40873;47.522;19.106;2022-11-20T12:39:41;99914.53;;;5.73;96.51
54978;BME280;40873;47.522;19.106;2022-11-20T12:42:39;99924.81;;;5.59;97.66
54978;BME280;40873;47.522;19.106;2022-11-20T12:45:37;99926.94;;;5.50;98.82
54978;BME280;40873;47.522;19.106;2022-11-20T13:07:57;99947.22;;;5.27;100.00
54978;BME280;40873;47.522;19.106;2022-11-20T13:16:24;99946.22;;;5.48;100.00
54978;BME280;40873;47.522;19.106;2022-11-20T13:18:53;99952.09;;;5.53;100.00
54978;BME280;40873;47.522;19.106;2022-11-20T13:21:23;99945.53;;;5.44;99.94
54978;BME280;40873;47.522;19.106;2022-11-20T13:29:36;99935.69;;;5.68;99.19
54978;BME280;40873;47.522;19.106;2022-11-20T13:34:54;99928.56;;;5.72;98.48
54978;BME280;40873;47.522;19.106;2022-11-20T13:42:44;99922.97;;;5.80;98.24
54978;BME280;40873;47.522;19.106;2022-11-20T13:45:27;99912.50;;;5.80;98.71
54978;BME280;40873;47.522;19.106;2022-11-20T13:47:57;99902.78;;;5.82;98.64
54978;BME280;40873;47.522;19.106;2022-11-20T13:53:49;99898.84;;;5.73;100.00
54978;BME280;40873;47.522;19.106;2022-11-20T13:56:42;99901.38;;;5.74;99.40
54978;BME280;40873;47.522;19.106;2022-11-20T14:01:58;99905.22;;;5.67;100.00
54978;BME280;40873;47.522;19.106;2022-11-20T14:04:29;99901.25;;;5.59;100.00
54978;BME280;40873;47.522;19.106;2022-11-20T14:06:57;99902.31;;;5.55;100.00
54978;BME280;40873;47.522;19.106;2022-11-20T14:09:31;99893.63;;;5.54;100.00
54978;BME280;40873;47.522;19.106;2022-11-20T14:11:58;99888.06;;;5.43;100.00
54978;BME280;40873;47.522;19.106;2022-11-20T14:14:27;99894.13;;;5.43;100.00
54978;BME280;40873;47.522;19.106;2022-11-20T14:17:08;99893.78;;;5.51;100.00
54978;BME280;40873;47.522;19.106;2022-11-20T14:19:35;99897.59;;;5.44;100.00
54978;BME280;40873;47.522;19.106;2022-11-20T14:22:14;99891.66;;;5.40;100.00
54978;BME280;40873;47.522;19.106;2022-11-20T14:24:42;99904.50;;;5.26;100.00
54978;BME280;40873;47.522;19.106;2022-11-20T14:27:13;99898.22;;;5.30;100.00
54978;BME280;40873;47.522;19.106;2022-11-20T14:29:41;99909.59;;;5.10;100.00
54978;BME280;40873;47.522;19.106;2022-11-20T14:32:09;99911.28;;;5.11;100.00
54978;BME280;40873;47.522;19.106;2022-11-20T14:34:39;99910.38;;;5.12;100.00
54978;BME280;40873;47.522;19.106;2022-11-20T14:37:18;99914.94;;;5.07;100.00
54978;BME280;40873;47.522;19.106;2022-11-20T14:39:50;99926.31;;;5.06;100.00